createdAt,value
2019-06-01T00:01:02.968Z,99316.39
2019-06-01T00:03:06.907Z,99322.77
2019-06-01T00:05:10.870Z,99320.55
2019-06-01T00:07:14.715Z,99320.55
2019-06-01T00:09:18.684Z,99330.02
2019-06-01T00:11:22.544Z,99325.91
2019-06-01T00:13:26.512Z,99320.65
2019-06-01T00:15:30.322Z,99324.55
2019-06-01T00:17:34.139Z,99326.48
2019-06-01T00:19:37.944Z,99329.84
2019-06-01T00:21:41.812Z,99329.59
2019-06-01T00:23:46.562Z,99332.13
2019-06-01T00:25:50.465Z,99329.42
2019-06-01T00:27:54.374Z,99332.48
2019-06-01T00:29:58.338Z,99329.47
2019-06-01T00:32:02.228Z,99326.95
2019-06-01T00:34:06.160Z,99320.60
2019-06-01T00:36:10.010Z,99323.34
2019-06-01T00:38:13.868Z,99324.44
2019-06-01T00:40:18.036Z,99328.31
2019-06-01T00:42:21.886Z,99324.19
2019-06-01T00:44:25.830Z,99322.30
2019-06-01T00:46:29.740Z,99322.31
2019-06-01T00:48:33.620Z,99319.30
2019-06-01T00:50:37.590Z,99315.17
2019-06-01T00:52:41.437Z,99313.81
2019-06-01T00:54:45.377Z,99310.48
2019-06-01T00:56:49.701Z,99309.69
2019-06-01T00:58:53.975Z,99306.64
2019-06-01T01:00:57.936Z,99316.60
2019-06-01T01:03:01.773Z,99317.70
2019-06-01T01:05:12.894Z,99315.48
2019-06-01T01:07:16.760Z,99314.41
2019-06-01T01:09:20.665Z,99316.64
2019-06-01T01:11:24.625Z,99323.83
2019-06-01T01:13:28.551Z,99322.47
2019-06-01T01:15:32.509Z,99320.28
2019-06-01T01:17:36.273Z,99323.34
2019-06-01T01:19:40.237Z,99325.57
2019-06-01T01:21:44.167Z,99322.53
2019-06-01T01:23:48.242Z,99323.37
2019-06-01T01:25:52.614Z,99327.51
2019-06-01T01:27:57.069Z,99322.55
2019-06-01T01:30:00.912Z,99324.48
2019-06-01T01:32:04.973Z,99326.98
2019-06-01T01:34:08.722Z,99323.95
2019-06-01T01:36:12.638Z,99322.86
2019-06-01T01:38:16.653Z,99315.66
2019-06-01T01:40:20.447Z,99316.52
2019-06-01T01:42:24.330Z,99318.44
2019-06-01T01:44:28.384Z,99317.90
2019-06-01T01:46:32.163Z,99319.50
2019-06-01T01:48:36.413Z,99317.33
2019-06-01T01:50:40.333Z,99322.84
2019-06-01T01:52:44.419Z,99316.50
2019-06-01T01:54:48.167Z,99316.75
2019-06-01T01:56:52.199Z,99314.83
2019-06-01T01:59:15.791Z,99320.09
2019-06-01T02:01:22.700Z,99326.14
2019-06-01T02:03:25.107Z,99314.00
2019-06-01T02:05:29.001Z,99317.59
2019-06-01T02:07:32.881Z,99313.75
2019-06-01T02:09:38.493Z,99318.42
2019-06-01T02:11:42.423Z,99318.42
2019-06-01T02:13:46.256Z,99312.91
2019-06-01T02:15:50.197Z,99317.88
2019-06-01T02:17:54.167Z,99315.13
2019-06-01T02:19:58.189Z,99315.95
2019-06-01T02:22:05.228Z,99320.63
2019-06-01T02:24:09.098Z,99318.13
2019-06-01T02:26:13.022Z,99313.44
2019-06-01T02:28:16.939Z,99317.57
2019-06-01T02:30:21.413Z,99322.82
2019-06-01T02:32:25.376Z,99318.40
2019-06-01T02:34:29.175Z,99322.81
2019-06-01T02:36:33.181Z,99316.18
2019-06-01T02:38:58.640Z,99318.39
2019-06-01T02:41:03.272Z,99322.52
2019-06-01T02:43:07.716Z,99318.09
2019-06-01T02:45:12.455Z,99314.24
2019-06-01T02:47:16.364Z,99319.20
2019-06-01T02:49:20.296Z,99320.00
2019-06-01T02:51:24.269Z,99326.08
2019-06-01T02:53:28.077Z,99322.49
2019-06-01T02:55:31.987Z,99318.61
2019-06-01T02:57:36.093Z,99322.19
2019-06-01T02:59:40.070Z,99319.17
2019-06-01T03:01:57.383Z,99325.22
2019-06-01T03:03:57.441Z,99324.68
2019-06-01T03:06:03.489Z,99326.59
2019-06-01T03:08:08.177Z,99308.41
2019-06-01T03:10:14.309Z,99321.63
2019-06-01T03:12:20.033Z,99313.38
2019-06-01T03:14:27.015Z,99316.91
2019-06-01T03:16:32.492Z,99314.41
2019-06-01T03:18:39.704Z,99314.14
2019-06-01T03:20:46.689Z,99319.34
2019-06-01T03:22:53.061Z,99317.69
2019-06-01T03:24:59.954Z,99313.55
2019-06-01T03:27:06.229Z,99310.80
2019-06-01T03:29:19.193Z,99320.95
2019-06-01T03:31:23.091Z,99317.64
2019-06-01T03:33:27.078Z,99319.02
2019-06-01T03:35:31.107Z,99312.92
2019-06-01T03:37:35.003Z,99309.09
2019-06-01T03:39:38.922Z,99309.64
2019-06-01T03:41:43.028Z,99311.56
2019-06-01T03:43:46.833Z,99315.98
2019-06-01T03:45:50.733Z,99313.23
2019-06-01T03:47:54.673Z,99314.61
2019-06-01T03:49:58.574Z,99315.14
2019-06-01T03:52:02.732Z,99310.76
2019-06-01T03:54:08.599Z,99311.84
2019-06-01T03:56:12.651Z,99315.42
2019-06-01T03:58:16.446Z,99312.38
2019-06-01T04:00:20.422Z,99304.97
2019-06-01T04:02:32.777Z,99306.87
2019-06-01T04:04:29.775Z,99309.91
2019-06-01T04:06:33.708Z,99316.78
2019-06-01T04:08:37.588Z,99314.57
2019-06-01T04:10:41.518Z,99308.78
2019-06-01T04:12:45.406Z,99311.81
2019-06-01T04:14:49.306Z,99306.63
2019-06-01T04:16:53.298Z,99317.89
2019-06-01T04:18:57.139Z,99312.14
2019-06-01T04:21:02.415Z,99310.78
2019-06-01T04:23:06.425Z,99309.13
2019-06-01T04:25:10.438Z,99311.06
2019-06-01T04:27:14.389Z,99310.53
2019-06-01T04:29:18.266Z,99314.67
2019-06-01T04:31:22.185Z,99315.77
2019-06-01T04:33:26.086Z,99313.02
2019-06-01T04:35:30.008Z,99311.64
2019-06-01T04:37:33.873Z,99310.55
2019-06-01T04:39:37.789Z,99314.98
2019-06-01T04:41:41.680Z,99313.33
2019-06-01T04:43:45.595Z,99316.41
2019-06-01T04:45:49.527Z,99315.84
2019-06-01T04:47:53.470Z,99318.35
2019-06-01T04:49:58.806Z,99313.39
2019-06-01T04:52:02.672Z,99313.94
2019-06-01T04:54:06.934Z,99322.20
2019-06-01T04:56:11.178Z,99321.13
2019-06-01T04:58:15.125Z,99321.13
2019-06-01T05:00:27.328Z,99315.89
2019-06-01T05:02:26.088Z,99324.72
2019-06-01T05:04:29.965Z,99324.19
2019-06-01T05:06:33.900Z,99326.37
2019-06-01T05:08:37.784Z,99323.62
2019-06-01T05:10:41.703Z,99324.75
2019-06-01T05:12:45.671Z,99324.75
2019-06-01T05:14:49.474Z,99327.22
2019-06-01T05:16:53.462Z,99320.34
2019-06-01T05:18:57.309Z,99321.17
2019-06-01T05:21:01.044Z,99317.88
2019-06-01T05:23:04.996Z,99317.88
2019-06-01T05:25:09.270Z,99314.30
2019-06-01T05:27:13.201Z,99317.88
2019-06-01T05:29:18.099Z,99314.84
2019-06-01T05:31:25.248Z,99316.50
2019-06-01T05:33:36.831Z,99316.50
2019-06-01T05:35:33.519Z,99321.48
2019-06-01T05:37:37.449Z,99326.98
2019-06-01T05:39:41.317Z,99324.77
2019-06-01T05:41:45.173Z,99325.02
2019-06-01T05:43:49.058Z,99320.86
2019-06-01T05:45:52.982Z,99318.66
2019-06-01T05:47:56.899Z,99320.02
2019-06-01T05:50:00.784Z,99320.26
2019-06-01T05:52:04.870Z,99320.23
2019-06-01T05:54:08.790Z,99315.27
2019-06-01T05:56:12.772Z,99318.00
2019-06-01T05:58:17.272Z,99311.08
2019-06-01T06:00:29.341Z,99312.13
2019-06-01T06:02:33.242Z,99311.81
2019-06-01T06:04:37.116Z,99312.92
2019-06-01T06:06:41.082Z,99311.27
2019-06-01T06:08:46.576Z,99312.38
2019-06-01T06:10:50.471Z,99311.20
2019-06-01T06:12:54.378Z,99311.44
2019-06-01T06:14:58.287Z,99317.19
2019-06-01T06:17:02.461Z,99311.89
2019-06-01T06:19:06.384Z,99314.30
2019-06-01T06:21:10.257Z,99310.65
2019-06-01T06:23:14.317Z,99318.28
2019-06-01T06:25:18.262Z,99315.44
2019-06-01T06:27:22.787Z,99311.48
2019-06-01T06:29:26.670Z,99313.94
2019-06-01T06:31:30.551Z,99315.78
2019-06-01T06:33:36.853Z,99312.11
2019-06-01T06:35:39.965Z,99319.23
2019-06-01T06:37:43.898Z,99321.61
2019-06-01T06:39:47.796Z,99322.03
2019-06-01T06:41:51.707Z,99326.57
2019-06-01T06:43:55.671Z,99320.36
2019-06-01T06:45:59.583Z,99325.23
2019-06-01T06:48:03.435Z,99321.73
2019-06-01T06:50:07.714Z,99319.42
2019-06-01T06:52:11.646Z,99316.25
2019-06-01T06:54:16.106Z,99331.03
2019-06-01T06:56:20.055Z,99327.52
2019-06-01T06:58:24.432Z,99326.19
2019-06-01T07:00:28.481Z,99322.41
2019-06-01T07:02:32.387Z,99325.45
2019-06-01T07:04:36.312Z,99320.17
2019-06-01T07:06:40.191Z,99321.75
2019-06-01T07:08:44.197Z,99320.24
2019-06-01T07:10:48.003Z,99322.36
2019-06-01T07:12:51.992Z,99321.39
2019-06-01T07:14:55.805Z,99315.91
2019-06-01T07:17:01.132Z,99313.03
2019-06-01T07:19:05.125Z,99320.65
2019-06-01T07:21:10.039Z,99321.27
2019-06-01T07:23:14.103Z,99324.47
2019-06-01T07:25:17.994Z,99324.47
2019-06-01T07:27:22.041Z,99318.30
2019-06-01T07:29:26.292Z,99318.56
2019-06-01T07:31:30.134Z,99321.67
2019-06-01T07:33:34.036Z,99319.84
2019-06-01T07:35:38.015Z,99317.66
2019-06-01T07:37:41.810Z,99313.59
2019-06-01T07:39:45.772Z,99309.70
2019-06-01T07:41:49.721Z,99305.88
2019-06-01T07:43:53.563Z,99309.41
2019-06-01T07:45:58.526Z,99310.05
2019-06-01T07:48:02.371Z,99316.63
2019-06-01T07:50:06.552Z,99313.77
2019-06-01T07:52:13.207Z,99305.46
2019-06-01T07:54:16.301Z,99310.62
2019-06-01T07:56:20.467Z,99314.50
2019-06-01T07:58:24.697Z,99310.57
2019-06-01T08:00:29.570Z,99302.29
2019-06-01T08:02:33.389Z,99312.45
2019-06-01T08:04:52.486Z,99312.38
2019-06-01T08:06:47.111Z,99311.46
2019-06-01T08:08:49.470Z,99313.84
2019-06-01T08:10:53.336Z,99314.30
2019-06-01T08:12:57.269Z,99322.69
2019-06-01T08:15:01.153Z,99313.36
2019-06-01T08:17:05.310Z,99313.73
2019-06-01T08:19:09.135Z,99307.43
2019-06-01T08:21:13.135Z,99308.19
2019-06-01T08:23:16.891Z,99310.89
2019-06-01T08:25:22.070Z,99310.71
2019-06-01T08:27:26.524Z,99302.16
2019-06-01T08:29:30.827Z,99301.50
2019-06-01T08:31:34.650Z,99302.70
2019-06-01T08:33:38.626Z,99299.12
2019-06-01T08:35:42.487Z,99298.56
2019-06-01T08:37:46.311Z,99296.12
2019-06-01T08:39:50.239Z,99295.55
2019-06-01T08:41:54.120Z,99298.69
2019-06-01T08:43:58.077Z,99296.92
2019-06-01T08:46:02.041Z,99295.64
2019-06-01T08:48:05.911Z,99298.42
2019-06-01T08:50:10.189Z,99292.93
2019-06-01T08:52:14.162Z,99294.17
2019-06-01T08:54:19.013Z,99295.20
2019-06-01T08:56:24.101Z,99294.38
2019-06-01T08:58:28.258Z,99294.51
2019-06-01T09:00:32.706Z,99294.30
2019-06-01T09:02:37.388Z,99287.40
2019-06-01T09:04:41.173Z,99284.67
2019-06-01T09:06:45.055Z,99283.07
2019-06-01T09:08:49.008Z,99281.91
2019-06-01T09:10:52.911Z,99281.28
2019-06-01T09:12:56.786Z,99283.48
2019-06-01T09:15:00.696Z,99277.73
2019-06-01T09:17:04.788Z,99280.41
2019-06-01T09:19:11.405Z,99275.50
2019-06-01T09:21:14.340Z,99278.49
2019-06-01T09:23:18.100Z,99275.49
2019-06-01T09:25:21.866Z,99271.76
2019-06-01T09:27:25.772Z,99277.06
2019-06-01T09:29:30.082Z,99275.02
2019-06-01T09:31:34.392Z,99268.86
2019-06-01T09:33:38.295Z,99265.47
2019-06-01T09:35:53.981Z,99271.94
2019-06-01T09:37:47.746Z,99273.62
2019-06-01T09:39:51.649Z,99271.70
2019-06-01T09:41:55.541Z,99278.33
2019-06-01T09:43:59.526Z,99274.97
2019-06-01T09:46:03.349Z,99276.84
2019-06-01T09:48:07.425Z,99276.77
2019-06-01T09:50:12.645Z,99271.63
2019-06-01T09:52:16.584Z,99266.25
2019-06-01T09:54:20.400Z,99268.82
2019-06-01T09:56:24.299Z,99266.41
2019-06-01T09:58:28.477Z,99262.58
2019-06-01T10:00:32.554Z,99259.45
2019-06-01T10:02:36.421Z,99257.08
2019-06-01T10:04:40.770Z,99258.16
2019-06-01T10:06:45.486Z,99253.22
2019-06-01T10:08:49.372Z,99255.28
2019-06-01T10:10:53.308Z,99252.20
2019-06-01T10:12:57.171Z,99248.87
2019-06-01T10:15:01.205Z,99249.88
2019-06-01T10:17:05.525Z,99253.30
2019-06-01T10:19:09.319Z,99252.45
2019-06-01T10:21:13.227Z,99256.86
2019-06-01T10:23:17.102Z,99254.72
2019-06-01T10:25:21.090Z,99247.56
2019-06-01T10:27:24.940Z,99244.33
2019-06-01T10:29:28.810Z,99243.98
2019-06-01T10:31:32.760Z,99249.02
2019-06-01T10:33:37.375Z,99238.56
2019-06-01T10:35:41.337Z,99241.69
2019-06-01T10:37:45.271Z,99242.88
2019-06-01T10:39:49.147Z,99242.99
2019-06-01T10:41:53.090Z,99243.98
2019-06-01T10:43:56.945Z,99240.85
2019-06-01T10:46:00.879Z,99244.11
2019-06-01T10:48:04.842Z,99244.97
2019-06-01T10:50:09.331Z,99235.46
2019-06-01T10:52:13.236Z,99237.14
2019-06-01T10:54:17.106Z,99239.09
2019-06-01T10:56:21.037Z,99238.59
2019-06-01T10:58:24.949Z,99233.78
2019-06-01T11:00:38.737Z,99228.52
2019-06-01T11:02:34.779Z,99226.48
2019-06-01T11:04:39.102Z,99212.36
2019-06-01T11:06:47.910Z,99215.85
2019-06-01T11:08:48.524Z,99209.96
2019-06-01T11:10:52.496Z,99209.58
2019-06-01T11:12:56.362Z,99206.17
2019-06-01T11:15:00.367Z,99206.59
2019-06-01T11:17:04.384Z,99202.38
2019-06-01T11:19:08.330Z,99206.65
2019-06-01T11:21:12.232Z,99198.70
2019-06-01T11:23:16.070Z,99197.30
2019-06-01T11:25:19.791Z,99198.09
2019-06-01T11:27:23.693Z,99192.59
2019-06-01T11:29:27.592Z,99187.91
2019-06-01T11:31:31.525Z,99182.22
2019-06-01T11:33:36.009Z,99182.46
2019-06-01T11:35:41.188Z,99187.74
2019-06-01T11:37:45.319Z,99183.51
2019-06-01T11:39:49.157Z,99175.38
2019-06-01T11:41:53.055Z,99179.23
2019-06-01T11:43:56.966Z,99174.75
2019-06-01T11:46:00.860Z,99172.13
2019-06-01T11:48:04.934Z,99169.52
2019-06-01T11:50:09.654Z,99163.66
2019-06-01T11:52:13.478Z,99159.38
2019-06-01T11:54:17.512Z,99163.61
2019-06-01T11:56:21.389Z,99162.79
2019-06-01T11:58:25.323Z,99158.13
2019-06-01T12:00:29.410Z,99163.33
2019-06-01T12:02:33.350Z,99160.09
2019-06-01T12:04:37.848Z,99154.41
2019-06-01T12:06:42.081Z,99152.23
2019-06-01T12:08:46.460Z,99147.80
2019-06-01T12:10:50.361Z,99148.80
2019-06-01T12:12:55.322Z,99137.88
2019-06-01T12:14:59.182Z,99148.61
2019-06-01T12:17:03.097Z,99139.89
2019-06-01T12:19:07.021Z,99134.38
2019-06-01T12:21:10.916Z,99144.52
2019-06-01T12:23:15.039Z,99141.64
2019-06-01T12:25:18.989Z,99136.83
2019-06-01T12:27:22.839Z,99130.53
2019-06-01T12:29:26.935Z,99136.22
2019-06-01T12:31:30.855Z,99131.74
2019-06-01T12:33:34.793Z,99129.09
2019-06-01T12:35:39.824Z,99129.30
2019-06-01T12:38:00.138Z,99126.64
2019-06-01T12:39:52.086Z,99125.41
2019-06-01T12:41:54.889Z,99118.44
2019-06-01T12:44:17.250Z,99116.59
2019-06-01T12:46:21.110Z,99124.67
2019-06-01T12:48:25.008Z,99114.30
2019-06-01T12:50:29.071Z,99118.07
2019-06-01T12:52:32.898Z,99119.75
2019-06-01T12:54:36.779Z,99107.23
2019-06-01T12:56:40.859Z,99105.84
2019-06-01T12:58:45.978Z,99099.65
2019-06-01T13:00:50.014Z,99101.27
2019-06-01T13:03:06.046Z,99097.86
2019-06-01T13:04:59.302Z,99096.25
2019-06-01T13:07:03.274Z,99098.46
2019-06-01T13:09:08.587Z,99096.56
2019-06-01T13:11:12.494Z,99097.81
2019-06-01T13:13:16.433Z,99091.93
2019-06-01T13:15:20.513Z,99087.72
2019-06-01T13:17:24.388Z,99087.86
2019-06-01T13:19:28.370Z,99082.27
2019-06-01T13:21:32.252Z,99079.04
2019-06-01T13:23:36.096Z,99078.22
2019-06-01T13:25:41.406Z,99067.19
2019-06-01T13:27:46.427Z,99070.74
2019-06-01T13:29:50.473Z,99059.64
2019-06-01T13:31:54.383Z,99057.95
2019-06-01T13:33:58.281Z,99062.23
2019-06-01T13:36:02.220Z,99058.91
2019-06-01T13:38:12.286Z,99051.50
2019-06-01T13:40:11.693Z,99047.45
2019-06-01T13:42:15.544Z,99050.30
2019-06-01T13:44:19.514Z,99051.30
2019-06-01T13:46:23.339Z,99042.89
2019-06-01T13:48:27.276Z,99038.78
2019-06-01T13:50:31.161Z,99041.30
2019-06-01T13:52:35.058Z,99039.59
2019-06-01T13:54:40.232Z,99035.03
2019-06-01T13:56:44.754Z,99033.26
2019-06-01T13:58:48.617Z,99030.53
2019-06-01T14:00:53.225Z,99022.26
2019-06-01T14:02:58.150Z,99022.57
2019-06-01T14:05:02.047Z,99015.05
2019-06-01T14:07:06.057Z,99018.69
2019-06-01T14:09:09.780Z,99016.55
2019-06-01T14:11:13.700Z,99013.77
2019-06-01T14:13:17.747Z,99017.61
2019-06-01T14:15:21.548Z,99017.42
2019-06-01T14:17:25.415Z,99014.44
2019-06-01T14:19:29.300Z,99022.55
2019-06-01T14:21:33.201Z,99017.72
2019-06-01T14:23:37.210Z,99007.70
2019-06-01T14:25:41.088Z,99002.78
2019-06-01T14:27:46.060Z,99008.16
2019-06-01T14:29:50.301Z,99005.05
2019-06-01T14:31:57.387Z,99006.23
2019-06-01T14:34:01.342Z,99003.23
2019-06-01T14:36:05.447Z,99004.27
2019-06-01T14:38:09.370Z,99005.63
2019-06-01T14:40:13.697Z,98999.47
2019-06-01T14:42:17.556Z,98996.78
2019-06-01T14:44:21.457Z,98993.13
2019-06-01T14:46:25.377Z,98992.25
2019-06-01T14:48:29.273Z,98986.25
2019-06-01T14:50:33.281Z,98992.95
2019-06-01T14:52:37.226Z,98981.77
2019-06-01T14:54:41.089Z,98986.03
2019-06-01T14:56:44.956Z,98983.55
2019-06-01T14:58:49.900Z,98984.12
2019-06-01T15:00:54.571Z,98979.30
2019-06-01T15:02:58.543Z,98978.42
2019-06-01T15:05:02.428Z,98979.22
2019-06-01T15:07:06.256Z,98973.29
2019-06-01T15:09:18.331Z,98968.22
2019-06-01T15:11:16.085Z,98972.27
2019-06-01T15:13:20.053Z,98967.11
2019-06-01T15:15:24.178Z,98965.30
2019-06-01T15:17:28.064Z,98964.66
2019-06-01T15:19:31.954Z,98971.45
2019-06-01T15:21:37.188Z,98965.75
2019-06-01T15:23:40.975Z,98968.75
2019-06-01T15:25:44.951Z,98957.44
2019-06-01T15:27:48.673Z,98954.98
2019-06-01T15:29:52.734Z,98952.33
2019-06-01T15:31:57.952Z,98951.48
2019-06-01T15:34:01.958Z,98954.25
2019-06-01T15:36:05.913Z,98953.06
2019-06-01T15:38:09.882Z,98949.65
2019-06-01T15:40:14.474Z,98947.00
2019-06-01T15:42:18.348Z,98948.91
2019-06-01T15:44:22.320Z,98944.42
2019-06-01T15:46:26.207Z,98947.22
2019-06-01T15:48:30.074Z,98947.33
2019-06-01T15:50:34.020Z,98945.07
2019-06-01T15:52:37.991Z,98938.78
2019-06-01T15:54:41.832Z,98938.88
2019-06-01T15:56:45.780Z,98940.85
2019-06-01T15:58:53.564Z,98941.61
2019-06-01T16:00:56.696Z,98932.50
2019-06-01T16:03:01.185Z,98936.73
2019-06-01T16:05:05.708Z,98936.36
2019-06-01T16:07:09.517Z,98931.31
2019-06-01T16:09:13.434Z,98929.48
2019-06-01T16:11:17.359Z,98933.71
2019-06-01T16:13:21.412Z,98929.67
2019-06-01T16:15:25.392Z,98932.66
2019-06-01T16:17:29.258Z,98927.91
2019-06-01T16:19:33.195Z,98923.55
2019-06-01T16:21:37.051Z,98926.70
2019-06-01T16:23:49.863Z,98923.59
2019-06-01T16:25:57.400Z,98923.88
2019-06-01T16:27:52.268Z,98925.97
2019-06-01T16:29:56.856Z,98925.50
2019-06-01T16:32:00.821Z,98926.84
2019-06-01T16:34:05.278Z,98923.36
2019-06-01T16:36:09.082Z,98925.16
2019-06-01T16:38:13.070Z,98913.98
2019-06-01T16:40:17.827Z,98914.66
2019-06-01T16:42:21.647Z,98916.70
2019-06-01T16:44:26.453Z,98916.78
2019-06-01T16:46:30.245Z,98909.23
2019-06-01T16:48:34.164Z,98910.37
2019-06-01T16:50:38.208Z,98908.09
2019-06-01T16:52:42.024Z,98908.02
2019-06-01T16:54:45.946Z,98910.33
2019-06-01T16:56:50.124Z,98905.67
2019-06-01T16:58:53.901Z,98911.69
2019-06-01T17:00:58.552Z,98907.23
2019-06-01T17:03:02.706Z,98902.19
2019-06-01T17:05:07.505Z,98903.59
2019-06-01T17:07:11.378Z,98903.83
2019-06-01T17:09:15.255Z,98902.63
2019-06-01T17:11:19.204Z,98899.38
2019-06-01T17:13:23.123Z,98895.16
2019-06-01T17:15:27.043Z,98900.78
2019-06-01T17:17:30.936Z,98898.13
2019-06-01T17:19:34.849Z,98903.39
2019-06-01T17:21:38.736Z,98901.98
2019-06-01T17:23:42.598Z,98897.54
2019-06-01T17:25:46.613Z,98898.36
2019-06-01T17:27:50.472Z,98898.13
2019-06-01T17:29:54.295Z,98900.73
2019-06-01T17:32:14.303Z,98902.30
2019-06-01T17:34:04.655Z,98897.03
2019-06-01T17:36:08.935Z,98905.03
2019-06-01T17:38:12.963Z,98890.86
2019-06-01T17:40:16.840Z,98893.82
2019-06-01T17:42:20.608Z,98892.95
2019-06-01T17:44:24.493Z,98889.55
2019-06-01T17:46:28.546Z,98893.34
2019-06-01T17:48:33.611Z,98888.22
2019-06-01T17:50:37.513Z,98888.96
2019-06-01T17:52:41.429Z,98883.28
2019-06-01T17:54:45.276Z,98885.27
2019-06-01T17:56:49.234Z,98887.07
2019-06-01T17:58:53.337Z,98883.73
2019-06-01T18:00:57.256Z,98880.02
2019-06-01T18:03:01.608Z,98879.59
2019-06-01T18:05:05.888Z,98881.73
2019-06-01T18:07:10.046Z,98876.88
2019-06-01T18:09:13.944Z,98883.00
2019-06-01T18:11:17.911Z,98879.61
2019-06-01T18:13:22.002Z,98881.93
2019-06-01T18:15:26.219Z,98880.44
2019-06-01T18:17:30.063Z,98883.69
2019-06-01T18:19:34.018Z,98879.84
2019-06-01T18:21:38.060Z,98881.02
2019-06-01T18:23:41.967Z,98885.84
2019-06-01T18:25:45.992Z,98882.56
2019-06-01T18:27:49.948Z,98879.11
2019-06-01T18:29:53.747Z,98880.33
2019-06-01T18:31:57.761Z,98882.17
2019-06-01T18:34:03.079Z,98889.58
2019-06-01T18:36:08.175Z,98885.59
2019-06-01T18:38:14.862Z,98885.63
2019-06-01T18:40:22.234Z,98890.13
2019-06-01T18:42:29.168Z,98886.33
2019-06-01T18:44:33.158Z,98888.14
2019-06-01T18:46:37.057Z,98889.00
2019-06-01T18:48:41.022Z,98885.45
2019-06-01T18:50:44.868Z,98889.34
2019-06-01T18:52:48.860Z,98894.03
2019-06-01T18:54:52.749Z,98901.42
2019-06-01T18:57:09.797Z,98900.52
2019-06-01T18:59:02.191Z,98896.00
2019-06-01T19:01:06.427Z,98906.09
2019-06-01T19:03:11.630Z,98898.97
2019-06-01T19:05:16.094Z,98897.25
2019-06-01T19:07:19.961Z,98902.87
2019-06-01T19:09:23.871Z,98900.58
2019-06-01T19:11:35.708Z,98901.66
2019-06-01T19:13:33.286Z,98899.25
2019-06-01T19:15:38.229Z,98897.49
2019-06-01T19:17:42.378Z,98904.64
2019-06-01T19:19:46.246Z,98904.01
2019-06-01T19:21:50.141Z,98905.09
2019-06-01T19:23:54.128Z,98907.23
2019-06-01T19:25:57.935Z,98902.50
2019-06-01T19:28:01.855Z,98907.61
2019-06-01T19:30:06.974Z,98915.58
2019-06-01T19:32:12.837Z,98914.39
2019-06-01T19:34:18.010Z,98916.86
2019-06-01T19:36:22.209Z,98910.41
2019-06-01T19:38:28.176Z,98907.95
2019-06-01T19:40:39.694Z,98923.92
2019-06-01T19:42:43.523Z,98918.20
2019-06-01T19:44:47.514Z,98925.30
2019-06-01T19:46:51.326Z,98931.58
2019-06-01T19:48:55.256Z,98925.41
2019-06-01T19:50:59.131Z,98928.91
2019-06-01T19:53:03.057Z,98926.95
2019-06-01T19:55:08.785Z,98930.31
2019-06-01T19:57:17.963Z,98928.56
2019-06-01T19:59:18.357Z,98929.95
2019-06-01T20:01:22.665Z,98935.44
2019-06-01T20:03:26.676Z,98939.13
2019-06-01T20:05:30.566Z,98937.09
2019-06-01T20:07:34.553Z,98942.24
2019-06-01T20:09:38.537Z,98945.11
2019-06-01T20:11:42.558Z,98938.33
2019-06-01T20:13:46.407Z,98936.72
2019-06-01T20:15:50.460Z,98937.14
2019-06-01T20:17:54.423Z,98940.14
2019-06-01T20:19:58.309Z,98940.09
2019-06-01T20:22:02.182Z,98937.14
2019-06-01T20:24:06.211Z,98938.22
2019-06-01T20:26:11.237Z,98935.78
2019-06-01T20:28:15.624Z,98937.77
2019-06-01T20:30:22.187Z,98932.66
2019-06-01T20:32:26.290Z,98936.66
2019-06-01T20:34:30.150Z,98935.78
2019-06-01T20:36:34.052Z,98936.98
2019-06-01T20:38:37.957Z,98935.67
2019-06-01T20:40:41.848Z,98942.91
2019-06-01T20:42:45.831Z,98942.96
2019-06-01T20:44:49.644Z,98943.32
2019-06-01T20:46:53.574Z,98944.98
2019-06-01T20:48:57.454Z,98946.30
2019-06-01T20:51:01.372Z,98948.34
2019-06-01T20:53:05.438Z,98948.83
2019-06-01T20:55:09.815Z,98950.04
2019-06-01T20:57:13.769Z,98951.26
2019-06-01T20:59:21.022Z,98952.25
2019-06-01T21:01:23.956Z,98951.59
2019-06-01T21:03:27.982Z,98956.56
2019-06-01T21:05:31.756Z,98947.73
2019-06-01T21:07:35.735Z,98947.34
2019-06-01T21:09:39.655Z,98951.13
2019-06-01T21:11:43.571Z,98951.39
2019-06-01T21:13:47.385Z,98947.70
2019-06-01T21:15:51.357Z,98952.55
2019-06-01T21:17:55.260Z,98952.22
2019-06-01T21:20:04.138Z,98953.84
2019-06-01T21:22:04.910Z,98947.20
2019-06-01T21:24:08.782Z,98947.88
2019-06-01T21:26:12.652Z,98948.55
2019-06-01T21:28:18.169Z,98949.84
2019-06-01T21:30:23.021Z,98950.75
2019-06-01T21:32:28.083Z,98943.53
2019-06-01T21:34:31.979Z,98955.16
2019-06-01T21:36:35.889Z,98953.12
2019-06-01T21:38:39.818Z,98954.34
2019-06-01T21:40:43.667Z,98947.22
2019-06-01T21:43:02.708Z,98944.44
2019-06-01T21:44:53.226Z,98953.78
2019-06-01T21:46:57.101Z,98951.66
2019-06-01T21:49:00.943Z,98951.08
2019-06-01T21:51:04.999Z,98944.42
2019-06-01T21:53:08.989Z,98952.38
2019-06-01T21:55:12.955Z,98953.92
2019-06-01T21:57:16.769Z,98954.44
2019-06-01T21:59:20.715Z,98951.97
2019-06-01T22:01:24.921Z,98948.29
2019-06-01T22:03:29.059Z,98949.50
2019-06-01T22:05:32.993Z,98960.33
2019-06-01T22:07:36.871Z,98959.16
2019-06-01T22:09:40.904Z,98956.37
2019-06-01T22:11:44.723Z,98957.44
2019-06-01T22:13:48.610Z,98959.03
2019-06-01T22:15:52.528Z,98956.64
2019-06-01T22:17:56.421Z,98958.64
2019-06-01T22:20:00.334Z,98961.64
2019-06-01T22:22:04.413Z,98958.78
2019-06-01T22:24:08.330Z,98953.03
2019-06-01T22:26:12.223Z,98960.39
2019-06-01T22:28:18.633Z,98950.95
2019-06-01T22:30:22.763Z,98947.95
2019-06-01T22:32:30.007Z,98951.86
2019-06-01T22:34:32.169Z,98947.83
2019-06-01T22:36:36.135Z,98946.02
2019-06-01T22:38:40.053Z,98948.54
2019-06-01T22:40:43.867Z,98941.29
2019-06-01T22:42:47.755Z,98945.05
2019-06-01T22:44:51.678Z,98944.22
2019-06-01T22:46:55.579Z,98941.22
2019-06-01T22:48:59.489Z,98941.78
2019-06-01T22:51:03.465Z,98943.80
2019-06-01T22:53:07.334Z,98941.92
2019-06-01T22:55:11.470Z,98939.78
2019-06-01T22:57:15.294Z,98945.81
2019-06-01T22:59:20.461Z,98946.50
2019-06-01T23:01:24.723Z,98939.03
2019-06-01T23:03:30.038Z,98940.44
2019-06-01T23:05:34.203Z,98938.12
2019-06-01T23:07:38.104Z,98937.59
2019-06-01T23:09:42.381Z,98941.53
2019-06-01T23:11:46.333Z,98938.31
2019-06-01T23:13:53.655Z,98938.45
2019-06-01T23:15:55.866Z,98934.84
2019-06-01T23:17:59.749Z,98930.19
2019-06-01T23:20:04.235Z,98938.75
2019-06-01T23:22:08.089Z,98936.36
2019-06-01T23:24:11.985Z,98937.12
2019-06-01T23:26:16.007Z,98931.42
2019-06-01T23:28:19.798Z,98930.20
2019-06-01T23:30:24.262Z,98927.25
2019-06-01T23:32:28.596Z,98932.59
2019-06-01T23:34:32.815Z,98923.07
2019-06-01T23:36:37.028Z,98924.19
2019-06-01T23:38:40.957Z,98915.81
2019-06-01T23:40:44.926Z,98918.95
2019-06-01T23:42:48.788Z,98920.92
2019-06-01T23:44:52.690Z,98913.66
2019-06-01T23:46:56.691Z,98916.38
2019-06-01T23:49:00.481Z,98913.80
2019-06-01T23:51:04.600Z,98910.14
2019-06-01T23:53:13.533Z,98910.14
2019-06-01T23:55:14.402Z,98903.06
2019-06-01T23:57:18.158Z,98908.50
2019-06-01T23:59:22.068Z,98909.95
